createdAt,value
2023-05-07T00:00:47.554Z,14.11
2023-05-07T00:03:15.841Z,14.00
2023-05-07T00:05:45.047Z,14.05
2023-05-07T00:08:13.294Z,13.69
2023-05-07T00:10:41.079Z,13.72
2023-05-07T00:13:08.902Z,13.76
2023-05-07T00:15:36.730Z,13.86
2023-05-07T00:18:04.652Z,13.83
2023-05-07T00:20:33.941Z,13.74
2023-05-07T00:23:04.744Z,13.75
2023-05-07T00:25:32.491Z,13.76
2023-05-07T00:28:04.573Z,13.82
2023-05-07T00:30:32.191Z,13.75
2023-05-07T00:33:00.088Z,13.55
2023-05-07T00:35:28.126Z,13.56
2023-05-07T00:37:56.055Z,13.54
2023-05-07T00:40:25.356Z,13.55
2023-05-07T00:42:57.787Z,13.55
2023-05-07T00:45:28.975Z,13.53
2023-05-07T00:47:58.070Z,13.48
2023-05-07T00:50:26.203Z,13.50
2023-05-07T00:52:54.215Z,13.38
2023-05-07T00:55:21.962Z,13.18
2023-05-07T00:57:52.299Z,13.34
2023-05-07T01:00:20.904Z,13.35
2023-05-07T01:02:48.783Z,13.42
2023-05-07T01:05:18.869Z,13.33
2023-05-07T01:07:48.126Z,13.33
2023-05-07T01:10:17.044Z,13.25
2023-05-07T01:12:48.012Z,13.28
2023-05-07T01:15:17.481Z,13.14
2023-05-07T01:17:46.304Z,13.27
2023-05-07T01:20:15.188Z,13.09
2023-05-07T01:22:45.595Z,12.96
2023-05-07T01:25:14.632Z,13.26
2023-05-07T01:27:42.441Z,13.40
2023-05-07T01:30:10.998Z,13.39
2023-05-07T01:32:43.186Z,13.45
2023-05-07T01:35:14.139Z,13.38
2023-05-07T01:37:42.877Z,13.42
2023-05-07T01:40:13.166Z,13.37
2023-05-07T01:42:41.697Z,13.19
2023-05-07T01:45:10.285Z,13.21
2023-05-07T01:47:39.279Z,13.14
2023-05-07T01:50:09.666Z,13.20
2023-05-07T01:52:39.364Z,13.14
2023-05-07T01:55:08.663Z,13.14
2023-05-07T01:57:37.878Z,13.04
2023-05-07T02:00:07.355Z,12.93
2023-05-07T02:02:35.229Z,12.92
2023-05-07T02:05:03.452Z,12.94
2023-05-07T02:07:31.204Z,12.92
2023-05-07T02:09:58.922Z,12.55
2023-05-07T02:12:26.782Z,12.81
2023-05-07T02:14:55.978Z,12.90
2023-05-07T02:17:24.002Z,12.73
2023-05-07T02:19:51.896Z,12.71
2023-05-07T02:22:20.237Z,12.81
2023-05-07T02:24:48.074Z,12.84
2023-05-07T02:27:15.847Z,12.85
2023-05-07T02:29:43.667Z,12.55
2023-05-07T02:32:12.913Z,12.53
2023-05-07T02:34:40.722Z,12.42
2023-05-07T02:37:08.467Z,12.34
2023-05-07T02:39:36.339Z,12.42
2023-05-07T02:42:04.215Z,12.50
2023-05-07T02:44:32.645Z,12.48
2023-05-07T02:47:00.329Z,12.35
2023-05-07T02:49:29.424Z,12.40
2023-05-07T02:51:57.338Z,12.22
2023-05-07T02:54:25.162Z,12.24
2023-05-07T02:56:52.992Z,12.20
2023-05-07T02:59:20.843Z,12.13
2023-05-07T03:01:49.453Z,12.14
2023-05-07T03:04:18.153Z,12.10
2023-05-07T03:06:47.413Z,11.93
2023-05-07T03:09:15.274Z,12.03
2023-05-07T03:11:43.064Z,12.08
2023-05-07T03:14:10.741Z,12.06
2023-05-07T03:16:38.511Z,12.05
2023-05-07T03:19:06.555Z,12.01
2023-05-07T03:21:35.360Z,11.98
2023-05-07T03:24:04.611Z,11.95
2023-05-07T03:26:32.367Z,12.06
2023-05-07T03:29:00.206Z,11.98
2023-05-07T03:31:28.057Z,12.00
2023-05-07T03:33:57.441Z,11.97
2023-05-07T03:36:26.197Z,11.92
2023-05-07T03:38:54.400Z,11.81
2023-05-07T03:41:23.665Z,11.79
2023-05-07T03:43:51.389Z,11.79
2023-05-07T03:46:19.245Z,11.85
2023-05-07T03:48:47.139Z,11.92
2023-05-07T03:51:14.923Z,11.88
2023-05-07T03:53:42.758Z,11.89
2023-05-07T03:56:10.564Z,12.18
2023-05-07T03:58:39.650Z,12.23
2023-05-07T04:01:08.480Z,11.99
2023-05-07T04:03:36.494Z,11.96
2023-05-07T04:06:04.664Z,11.96
2023-05-07T04:08:32.596Z,11.94
2023-05-07T04:11:01.394Z,11.90
2023-05-07T04:13:29.740Z,11.79
2023-05-07T04:15:58.991Z,11.84
2023-05-07T04:18:26.767Z,11.97
2023-05-07T04:20:54.670Z,12.02
2023-05-07T04:23:22.595Z,12.15
2023-05-07T04:25:50.576Z,12.17
2023-05-07T04:28:20.334Z,12.27
2023-05-07T04:30:48.356Z,12.40
2023-05-07T04:33:19.563Z,12.33
2023-05-07T04:35:47.317Z,12.37
2023-05-07T04:38:15.086Z,12.49
2023-05-07T04:40:43.350Z,12.61
2023-05-07T04:43:11.308Z,12.80
2023-05-07T04:45:41.612Z,13.00
2023-05-07T04:48:09.647Z,13.03
2023-05-07T04:50:39.481Z,13.21
2023-05-07T04:53:07.333Z,13.31
2023-05-07T04:55:35.283Z,13.26
2023-05-07T04:58:03.155Z,13.28
2023-05-07T05:00:31.151Z,13.52
2023-05-07T05:02:59.032Z,13.54
2023-05-07T05:05:26.808Z,13.76
2023-05-07T05:07:56.141Z,13.84
2023-05-07T05:10:24.714Z,13.89
2023-05-07T05:12:52.780Z,13.91
2023-05-07T05:15:20.789Z,13.71
2023-05-07T05:17:48.618Z,13.88
2023-05-07T05:20:16.456Z,13.72
2023-05-07T05:22:44.551Z,13.85
2023-05-07T05:25:13.669Z,14.03
2023-05-07T05:27:41.456Z,14.01
2023-05-07T05:30:10.282Z,14.06
2023-05-07T05:32:38.242Z,14.04
2023-05-07T05:35:07.144Z,14.04
2023-05-07T05:37:34.954Z,14.20
2023-05-07T05:40:02.727Z,14.06
2023-05-07T05:42:31.909Z,14.11
2023-05-07T05:44:59.648Z,14.12
2023-05-07T05:47:27.606Z,14.12
2023-05-07T05:49:55.399Z,14.09
2023-05-07T05:52:24.757Z,14.39
2023-05-07T05:54:52.544Z,14.31
2023-05-07T05:57:20.435Z,14.37
2023-05-07T05:59:50.265Z,14.67
2023-05-07T06:02:18.292Z,14.87
2023-05-07T06:04:46.302Z,14.90
2023-05-07T06:07:14.355Z,14.81
2023-05-07T06:09:42.114Z,15.11
2023-05-07T06:12:09.809Z,15.15
2023-05-07T06:14:37.630Z,15.24
2023-05-07T06:17:06.782Z,15.45
2023-05-07T06:19:34.633Z,15.77
2023-05-07T06:22:03.654Z,16.11
2023-05-07T06:24:31.501Z,16.35
2023-05-07T06:26:59.690Z,16.27
2023-05-07T06:29:27.696Z,15.97
2023-05-07T06:31:57.569Z,16.09
2023-05-07T06:34:26.859Z,16.00
2023-05-07T06:36:54.607Z,15.90
2023-05-07T06:39:22.378Z,15.71
2023-05-07T06:41:50.153Z,16.11
2023-05-07T06:44:17.970Z,16.30
2023-05-07T06:46:46.452Z,16.44
2023-05-07T06:49:14.411Z,16.57
2023-05-07T06:51:43.606Z,16.79
2023-05-07T06:54:11.627Z,16.67
2023-05-07T06:56:39.416Z,16.72
2023-05-07T06:59:07.222Z,17.06
2023-05-07T07:01:35.027Z,17.11
2023-05-07T07:04:02.824Z,17.44
2023-05-07T07:06:32.728Z,17.82
2023-05-07T07:09:02.559Z,18.26
2023-05-07T07:11:30.482Z,18.92
2023-05-07T07:13:58.454Z,18.81
2023-05-07T07:16:26.293Z,18.23
2023-05-07T07:18:54.176Z,18.65
2023-05-07T07:21:22.183Z,19.63
2023-05-07T07:23:50.027Z,19.75
2023-05-07T07:26:19.465Z,20.11
2023-05-07T07:28:47.819Z,20.26
2023-05-07T07:31:16.294Z,20.90
2023-05-07T07:33:44.092Z,21.69
2023-05-07T07:36:12.083Z,20.87
2023-05-07T07:38:39.870Z,21.74
2023-05-07T07:41:07.717Z,21.66
2023-05-07T07:43:37.706Z,22.19
2023-05-07T07:46:06.269Z,22.69
2023-05-07T07:48:33.995Z,22.10
2023-05-07T07:51:01.721Z,22.71
2023-05-07T07:53:29.404Z,22.88
2023-05-07T07:55:59.530Z,22.37
2023-05-07T07:58:27.872Z,21.59
2023-05-07T08:00:57.488Z,21.93
2023-05-07T08:03:25.450Z,20.62
2023-05-07T08:05:53.290Z,21.00
2023-05-07T08:08:21.320Z,20.43
2023-05-07T08:10:51.019Z,20.22
2023-05-07T08:13:19.336Z,20.93
2023-05-07T08:15:47.123Z,20.71
2023-05-07T08:18:16.312Z,21.50
2023-05-07T08:20:44.102Z,22.05
2023-05-07T08:23:11.876Z,22.14
2023-05-07T08:25:39.597Z,21.18
2023-05-07T08:28:09.645Z,21.03
2023-05-07T08:30:37.762Z,21.63
2023-05-07T08:33:05.567Z,21.81
2023-05-07T08:35:34.649Z,22.55
2023-05-07T08:38:02.413Z,22.50
2023-05-07T08:40:31.212Z,22.10
2023-05-07T08:43:00.064Z,23.13
2023-05-07T08:45:29.657Z,22.63
2023-05-07T08:48:00.922Z,22.61
2023-05-07T08:50:28.763Z,22.85
2023-05-07T08:52:58.734Z,22.52
2023-05-07T08:55:26.719Z,21.08
2023-05-07T08:57:55.080Z,22.19
2023-05-07T09:00:22.921Z,22.49
2023-05-07T09:02:50.732Z,23.26
2023-05-07T09:05:18.691Z,23.35
2023-05-07T09:07:46.858Z,23.33
2023-05-07T09:10:16.473Z,22.79
2023-05-07T09:12:44.345Z,23.39
2023-05-07T09:15:13.031Z,23.92
2023-05-07T09:17:42.207Z,23.39
2023-05-07T09:20:11.272Z,23.54
2023-05-07T09:22:39.621Z,23.92
2023-05-07T09:25:09.475Z,23.78
2023-05-07T09:27:39.258Z,24.29
2023-05-07T09:30:08.122Z,25.89
2023-05-07T09:32:38.897Z,26.20
2023-05-07T09:35:07.769Z,27.59
2023-05-07T09:37:35.612Z,25.40
2023-05-07T09:40:04.719Z,25.75
2023-05-07T09:42:32.543Z,24.82
2023-05-07T09:45:02.810Z,25.90
2023-05-07T09:47:34.744Z,25.75
2023-05-07T09:50:07.905Z,27.01
2023-05-07T09:52:36.727Z,26.29
2023-05-07T09:55:07.127Z,25.66
2023-05-07T09:57:36.362Z,24.89
2023-05-07T10:00:06.686Z,24.67
2023-05-07T10:02:37.429Z,24.55
2023-05-07T10:05:06.498Z,24.58
2023-05-07T10:07:34.772Z,23.84
2023-05-07T10:10:05.711Z,23.85
2023-05-07T10:12:40.092Z,24.59
2023-05-07T10:15:12.129Z,25.62
2023-05-07T10:17:41.282Z,25.71
2023-05-07T10:20:10.928Z,25.83
2023-05-07T10:25:30.449Z,26.77
2023-05-07T10:28:00.849Z,26.32
2023-05-07T10:30:40.518Z,25.15
2023-05-07T10:33:12.682Z,23.67
2023-05-07T10:35:43.510Z,23.70
2023-05-07T10:38:11.871Z,23.54
2023-05-07T10:40:39.768Z,23.25
2023-05-07T10:43:10.710Z,22.85
2023-05-07T10:45:40.390Z,23.43
2023-05-07T10:48:28.884Z,23.02
2023-05-07T10:51:20.407Z,23.74
2023-05-07T10:53:48.327Z,23.01
2023-05-07T10:56:30.063Z,22.60
2023-05-07T10:59:02.897Z,22.32
2023-05-07T11:01:54.970Z,22.61
2023-05-07T11:04:27.485Z,22.79
2023-05-07T11:07:27.198Z,22.66
2023-05-07T11:10:06.558Z,23.05
2023-05-07T11:12:57.298Z,23.42
2023-05-07T11:15:39.623Z,23.70
2023-05-07T11:18:09.145Z,24.40
2023-05-07T11:20:53.956Z,24.41
2023-05-07T11:24:00.112Z,24.58
2023-05-07T11:26:29.284Z,24.86
2023-05-07T11:28:57.871Z,25.65
2023-05-07T11:31:28.217Z,26.65
2023-05-07T11:33:57.724Z,27.49
2023-05-07T11:36:27.046Z,27.41
2023-05-07T11:38:55.006Z,27.79
2023-05-07T11:41:23.759Z,27.24
2023-05-07T11:43:59.167Z,26.85
2023-05-07T11:46:27.547Z,26.67
2023-05-07T11:48:55.681Z,27.43
2023-05-07T11:51:27.019Z,26.64
2023-05-07T11:53:55.129Z,27.31
2023-05-07T11:56:23.120Z,28.09
2023-05-07T11:58:52.774Z,28.36
2023-05-07T12:01:20.461Z,28.26
2023-05-07T12:03:48.802Z,29.16
2023-05-07T12:06:18.372Z,27.70
2023-05-07T12:08:48.761Z,27.77
2023-05-07T12:11:19.499Z,26.92
2023-05-07T12:13:47.292Z,27.69
2023-05-07T12:16:15.225Z,26.57
2023-05-07T12:18:43.567Z,25.76
2023-05-07T12:21:11.964Z,27.01
2023-05-07T12:23:40.609Z,26.31
2023-05-07T12:26:10.977Z,26.53
2023-05-07T12:28:40.705Z,26.05
2023-05-07T12:31:09.350Z,26.10
2023-05-07T12:33:37.809Z,26.69
2023-05-07T12:36:09.463Z,27.90
2023-05-07T12:38:38.811Z,28.11
2023-05-07T12:41:08.254Z,28.63
2023-05-07T12:43:37.441Z,28.13
2023-05-07T12:46:06.758Z,28.48
2023-05-07T12:48:35.192Z,28.57
2023-05-07T12:51:04.064Z,27.43
2023-05-07T12:53:32.363Z,25.89
2023-05-07T12:56:01.758Z,26.01
2023-05-07T12:58:31.451Z,26.00
2023-05-07T13:01:01.784Z,25.23
2023-05-07T13:03:31.392Z,24.89
2023-05-07T13:06:00.852Z,24.83
2023-05-07T13:08:30.991Z,24.85
2023-05-07T13:11:00.147Z,24.87
2023-05-07T13:13:30.098Z,24.55
2023-05-07T13:16:01.469Z,25.17
2023-05-07T13:18:31.772Z,26.46
2023-05-07T13:21:00.223Z,27.21
2023-05-07T13:23:28.354Z,26.75
2023-05-07T13:25:56.888Z,26.48
2023-05-07T13:28:25.006Z,26.35
2023-05-07T13:30:53.442Z,25.53
2023-05-07T13:33:22.588Z,25.53
2023-05-07T13:35:50.433Z,26.79
2023-05-07T13:38:18.849Z,28.12
2023-05-07T13:40:46.746Z,27.94
2023-05-07T13:43:15.447Z,29.84
2023-05-07T13:45:43.244Z,30.22
2023-05-07T13:48:11.218Z,29.32
2023-05-07T13:50:40.446Z,28.73
2023-05-07T13:53:08.178Z,27.66
2023-05-07T13:55:36.067Z,26.74
2023-05-07T13:58:06.901Z,25.85
2023-05-07T14:00:35.489Z,25.66
2023-05-07T14:03:03.930Z,24.58
2023-05-07T14:05:31.820Z,23.21
2023-05-07T14:08:00.975Z,23.25
2023-05-07T14:10:28.820Z,22.51
2023-05-07T14:12:56.662Z,22.28
2023-05-07T14:15:24.503Z,22.28
2023-05-07T14:17:52.345Z,22.12
2023-05-07T14:20:20.073Z,21.68
2023-05-07T14:22:47.841Z,21.71
2023-05-07T14:25:17.148Z,21.61
2023-05-07T14:27:45.056Z,21.33
2023-05-07T14:30:13.696Z,21.11
2023-05-07T14:32:41.452Z,21.18
2023-05-07T14:35:10.292Z,20.70
2023-05-07T14:37:38.200Z,20.58
2023-05-07T14:40:07.282Z,20.41
2023-05-07T14:42:36.508Z,20.13
2023-05-07T14:45:04.812Z,20.07
2023-05-07T14:47:32.650Z,20.07
2023-05-07T14:50:02.049Z,19.80
2023-05-07T14:52:30.009Z,19.50
2023-05-07T14:54:57.745Z,19.39
2023-05-07T14:57:25.468Z,19.51
2023-05-07T14:59:54.796Z,19.28
2023-05-07T15:02:22.991Z,18.92
2023-05-07T15:04:50.964Z,19.06
2023-05-07T15:07:18.722Z,18.59
2023-05-07T15:09:47.491Z,18.45
2023-05-07T15:12:15.867Z,18.14
2023-05-07T15:14:43.652Z,17.77
2023-05-07T15:17:15.958Z,17.65
2023-05-07T15:19:44.034Z,17.50
2023-05-07T15:22:11.731Z,17.56
2023-05-07T15:24:39.558Z,17.69
2023-05-07T15:27:07.397Z,17.28
2023-05-07T15:29:35.122Z,17.54
2023-05-07T15:32:03.098Z,17.30
2023-05-07T15:34:32.496Z,17.54
2023-05-07T15:37:00.259Z,17.26
2023-05-07T15:39:27.984Z,16.76
2023-05-07T15:41:55.774Z,17.00
2023-05-07T15:44:23.664Z,17.12
2023-05-07T15:46:51.806Z,17.15
2023-05-07T15:49:19.482Z,17.11
2023-05-07T15:51:48.621Z,17.10
2023-05-07T15:54:18.116Z,17.09
2023-05-07T15:56:45.863Z,17.11
2023-05-07T15:59:15.391Z,17.11
2023-05-07T16:01:43.674Z,17.01
2023-05-07T16:04:11.791Z,16.84
2023-05-07T16:06:39.621Z,16.73
2023-05-07T16:09:10.224Z,16.94
2023-05-07T16:11:38.048Z,16.87
2023-05-07T16:14:05.923Z,16.64
2023-05-07T16:16:34.789Z,16.83
2023-05-07T16:19:02.746Z,16.72
2023-05-07T16:21:31.176Z,16.64
2023-05-07T16:23:59.022Z,16.77
2023-05-07T16:26:28.275Z,16.59
2023-05-07T16:28:56.080Z,16.53
2023-05-07T16:31:23.861Z,16.46
2023-05-07T16:33:51.683Z,16.42
2023-05-07T16:36:19.644Z,16.27
2023-05-07T16:38:48.051Z,16.02
2023-05-07T16:41:15.832Z,16.13
2023-05-07T16:43:44.950Z,16.06
2023-05-07T16:46:12.754Z,16.16
2023-05-07T16:48:40.567Z,16.08
2023-05-07T16:51:08.471Z,15.83
2023-05-07T16:53:36.768Z,16.12
2023-05-07T16:56:06.376Z,16.04
2023-05-07T16:58:34.449Z,15.98
2023-05-07T17:01:03.877Z,16.03
2023-05-07T17:03:32.331Z,15.93
2023-05-07T17:06:00.327Z,16.01
2023-05-07T17:08:28.119Z,16.21
2023-05-07T17:10:55.883Z,15.96
2023-05-07T17:13:23.781Z,15.93
2023-05-07T17:15:51.654Z,15.96
2023-05-07T17:18:20.786Z,16.08
2023-05-07T17:20:48.494Z,15.98
2023-05-07T17:23:16.744Z,15.92
2023-05-07T17:25:45.516Z,15.89
2023-05-07T17:28:13.383Z,15.93
2023-05-07T17:30:41.325Z,15.80
2023-05-07T17:33:20.239Z,15.73
2023-05-07T17:35:50.939Z,15.98
2023-05-07T17:38:18.667Z,15.98
2023-05-07T17:40:46.364Z,15.95
2023-05-07T17:43:14.124Z,15.77
2023-05-07T17:45:42.093Z,15.72
2023-05-07T17:48:09.958Z,15.79
2023-05-07T17:50:37.767Z,15.76
2023-05-07T17:53:07.843Z,15.73
2023-05-07T17:55:40.438Z,15.66
2023-05-07T17:58:09.757Z,15.88
2023-05-07T18:00:37.880Z,15.81
2023-05-07T18:03:06.320Z,15.70
2023-05-07T18:05:37.504Z,15.72
2023-05-07T18:08:08.262Z,15.36
2023-05-07T18:10:36.157Z,15.36
2023-05-07T18:13:03.976Z,15.37
2023-05-07T18:15:31.706Z,15.18
2023-05-07T18:17:59.593Z,15.20
2023-05-07T18:20:27.384Z,15.25
2023-05-07T18:22:55.070Z,15.15
2023-05-07T18:25:24.496Z,15.00
2023-05-07T18:27:52.364Z,15.06
2023-05-07T18:30:20.688Z,15.11
2023-05-07T18:32:48.497Z,14.99
2023-05-07T18:35:17.004Z,14.92
2023-05-07T18:37:44.811Z,15.13
2023-05-07T18:40:13.743Z,15.00
2023-05-07T18:42:43.065Z,14.97
2023-05-07T18:45:11.570Z,14.88
2023-05-07T18:47:39.465Z,14.86
2023-05-07T18:50:08.431Z,14.90
2023-05-07T18:52:36.647Z,14.81
2023-05-07T18:55:05.353Z,14.80
2023-05-07T18:57:33.158Z,14.98
2023-05-07T19:00:02.361Z,14.87
2023-05-07T19:02:30.129Z,14.70
2023-05-07T19:04:57.977Z,14.83
2023-05-07T19:07:25.869Z,15.03
2023-05-07T19:10:04.376Z,14.85
2023-05-07T19:12:33.697Z,14.58
2023-05-07T19:15:03.035Z,14.86
2023-05-07T19:17:30.961Z,14.80
2023-05-07T19:19:58.777Z,14.57
2023-05-07T19:22:26.955Z,14.55
2023-05-07T19:24:54.947Z,14.50
2023-05-07T19:27:22.996Z,14.67
2023-05-07T19:29:51.068Z,14.59
2023-05-07T19:32:21.357Z,14.57
2023-05-07T19:34:49.448Z,14.52
2023-05-07T19:37:17.572Z,14.51
2023-05-07T19:39:46.220Z,14.83
2023-05-07T19:42:14.785Z,14.69
2023-05-07T19:44:42.635Z,14.47
2023-05-07T19:47:11.076Z,14.41
2023-05-07T19:49:40.231Z,14.55
2023-05-07T19:52:08.081Z,14.40
2023-05-07T19:54:37.056Z,14.56
2023-05-07T19:57:05.017Z,14.52
2023-05-07T19:59:32.832Z,14.34
2023-05-07T20:02:00.722Z,14.30
2023-05-07T20:04:32.978Z,14.33
2023-05-07T20:07:02.337Z,14.18
2023-05-07T20:09:30.280Z,14.11
2023-05-07T20:11:58.180Z,14.32
2023-05-07T20:14:27.139Z,14.26
2023-05-07T20:16:57.982Z,14.28
2023-05-07T20:19:25.964Z,14.17
2023-05-07T20:21:55.057Z,14.24
2023-05-07T20:24:24.711Z,14.22
2023-05-07T20:26:52.941Z,14.26
2023-05-07T20:29:23.759Z,14.45
2023-05-07T20:31:51.656Z,14.17
2023-05-07T20:34:19.823Z,14.20
2023-05-07T20:36:48.222Z,14.13
2023-05-07T20:39:17.108Z,14.07
2023-05-07T20:41:46.481Z,14.02
2023-05-07T20:44:17.363Z,13.79
2023-05-07T20:46:47.370Z,13.88
2023-05-07T20:49:15.384Z,13.65
2023-05-07T20:51:43.219Z,13.60
2023-05-07T20:54:12.996Z,13.37
2023-05-07T20:56:43.424Z,13.50
2023-05-07T20:59:12.876Z,13.60
2023-05-07T21:01:42.755Z,13.38
2023-05-07T21:04:10.885Z,13.46
2023-05-07T21:06:38.877Z,13.42
2023-05-07T21:09:07.907Z,13.51
2023-05-07T21:11:36.201Z,13.57
2023-05-07T21:14:04.331Z,13.64
2023-05-07T21:16:33.790Z,13.72
2023-05-07T21:19:01.815Z,13.70
2023-05-07T21:21:29.665Z,13.37
2023-05-07T21:23:57.490Z,13.41
2023-05-07T21:26:25.873Z,13.48
2023-05-07T21:28:53.961Z,13.50
2023-05-07T21:31:21.824Z,13.38
2023-05-07T21:33:53.168Z,13.45
2023-05-07T21:36:21.244Z,13.45
2023-05-07T21:38:49.013Z,13.24
2023-05-07T21:41:16.987Z,13.31
2023-05-07T21:43:44.834Z,13.25
2023-05-07T21:46:12.606Z,13.22
2023-05-07T21:48:40.369Z,13.15
2023-05-07T21:51:09.819Z,13.20
2023-05-07T21:53:37.810Z,13.37
2023-05-07T21:56:06.672Z,13.31
2023-05-07T21:58:34.463Z,13.54
2023-05-07T22:01:02.662Z,13.21
2023-05-07T22:03:30.682Z,13.34
2023-05-07T22:05:58.556Z,13.37
2023-05-07T22:08:27.796Z,13.39
2023-05-07T22:10:55.590Z,13.26
2023-05-07T22:13:26.375Z,13.31
2023-05-07T22:15:58.162Z,13.07
2023-05-07T22:18:26.734Z,13.27
2023-05-07T22:20:54.807Z,13.25
2023-05-07T22:23:22.622Z,13.31
2023-05-07T22:25:52.623Z,13.23
2023-05-07T22:28:20.848Z,13.12
2023-05-07T22:30:48.649Z,13.27
2023-05-07T22:33:16.607Z,13.32
2023-05-07T22:35:44.618Z,13.29
2023-05-07T22:38:12.367Z,13.19
2023-05-07T22:40:42.287Z,13.27
2023-05-07T22:43:13.945Z,13.31
2023-05-07T22:45:41.708Z,13.19
2023-05-07T22:48:09.795Z,13.24
2023-05-07T22:50:38.844Z,13.42
2023-05-07T22:53:07.549Z,13.24
2023-05-07T22:55:35.839Z,13.29
2023-05-07T22:58:04.156Z,13.20
2023-05-07T23:00:33.441Z,13.11
2023-05-07T23:03:01.529Z,13.38
2023-05-07T23:05:29.774Z,13.42
2023-05-07T23:07:58.235Z,13.43
2023-05-07T23:10:29.035Z,13.34
2023-05-07T23:12:56.955Z,13.33
2023-05-07T23:15:24.790Z,13.36
2023-05-07T23:17:54.009Z,13.33
2023-05-07T23:20:22.309Z,13.29
2023-05-07T23:22:50.231Z,13.39
2023-05-07T23:25:18.393Z,13.45
2023-05-07T23:27:46.258Z,13.28
2023-05-07T23:30:15.046Z,13.49
2023-05-07T23:32:43.493Z,13.38
2023-05-07T23:35:12.846Z,13.35
2023-05-07T23:37:40.762Z,13.22
2023-05-07T23:40:09.655Z,13.48
2023-05-07T23:42:37.744Z,13.52
2023-05-07T23:45:06.315Z,13.37
2023-05-07T23:47:34.338Z,13.39
2023-05-07T23:50:02.244Z,13.43
2023-05-07T23:52:31.444Z,13.37
2023-05-07T23:54:59.393Z,13.41
2023-05-07T23:57:27.285Z,13.30
2023-05-07T23:59:55.288Z,13.38
